sensor_id;sensor_type;location;lat;lon;timestamp;P1;durP1;ratioP1;P2;durP2;ratioP2
13605;SDS011;6874;52.084;5.090;2023-06-14T00:01:26;283.13;;;272.93;;
13605;SDS011;6874;52.084;5.090;2023-06-14T00:03:52;272.90;;;263.07;;
13605;SDS011;6874;52.084;5.090;2023-06-14T00:06:19;275.33;;;265.47;;
13605;SDS011;6874;52.084;5.090;2023-06-14T00:08:44;280.60;;;270.70;;
13605;SDS011;6874;52.084;5.090;2023-06-14T00:11:10;273.07;;;263.47;;
13605;SDS011;6874;52.084;5.090;2023-06-14T00:13:36;276.17;;;266.57;;
13605;SDS011;6874;52.084;5.090;2023-06-14T00:16:01;267.97;;;258.77;;
13605;SDS011;6874;52.084;5.090;2023-06-14T00:18:28;263.40;;;254.40;;
13605;SDS011;6874;52.084;5.090;2023-06-14T00:20:54;273.17;;;263.87;;
13605;SDS011;6874;52.084;5.090;2023-06-14T00:23:20;264.77;;;255.87;;
13605;SDS011;6874;52.084;5.090;2023-06-14T00:25:46;265.57;;;256.67;;
13605;SDS011;6874;52.084;5.090;2023-06-14T00:28:12;257.27;;;248.67;;
13605;SDS011;6874;52.084;5.090;2023-06-14T00:30:38;259.03;;;250.43;;
13605;SDS011;6874;52.084;5.090;2023-06-14T00:33:03;256.13;;;247.73;;
13605;SDS011;6874;52.084;5.090;2023-06-14T00:35:29;253.83;;;245.50;;
13605;SDS011;6874;52.084;5.090;2023-06-14T00:37:55;254.77;;;246.40;;
13605;SDS011;6874;52.084;5.090;2023-06-14T00:40:21;244.97;;;236.97;;
13605;SDS011;6874;52.084;5.090;2023-06-14T00:42:47;246.73;;;238.70;;
13605;SDS011;6874;52.084;5.090;2023-06-14T00:45:13;240.07;;;232.30;;
13605;SDS011;6874;52.084;5.090;2023-06-14T00:47:38;241.77;;;233.97;;
13605;SDS011;6874;52.084;5.090;2023-06-14T00:50:07;238.10;;;230.40;;
13605;SDS011;6874;52.084;5.090;2023-06-14T00:52:34;234.77;;;227.23;;
13605;SDS011;6874;52.084;5.090;2023-06-14T00:55:01;236.13;;;228.53;;
13605;SDS011;6874;52.084;5.090;2023-06-14T00:57:27;237.63;;;230.03;;
13605;SDS011;6874;52.084;5.090;2023-06-14T00:59:54;228.97;;;221.57;;
13605;SDS011;6874;52.084;5.090;2023-06-14T01:02:20;226.60;;;219.30;;
13605;SDS011;6874;52.084;5.090;2023-06-14T01:04:47;220.00;;;213.00;;
13605;SDS011;6874;52.084;5.090;2023-06-14T01:07:23;212.00;;;205.20;;
13605;SDS011;6874;52.084;5.090;2023-06-14T01:15:11;195.67;;;189.40;;
13605;SDS011;6874;52.084;5.090;2023-06-14T01:17:38;197.33;;;191.00;;
13605;SDS011;6874;52.084;5.090;2023-06-14T01:20:08;190.40;;;184.30;;
13605;SDS011;6874;52.084;5.090;2023-06-14T01:22:48;190.40;;;184.27;;
13605;SDS011;6874;52.084;5.090;2023-06-14T01:25:18;181.97;;;176.10;;
13605;SDS011;6874;52.084;5.090;2023-06-14T01:27:55;175.50;;;169.83;;
13605;SDS011;6874;52.084;5.090;2023-06-14T01:30:25;180.00;;;174.23;;
13605;SDS011;6874;52.084;5.090;2023-06-14T01:32:52;177.80;;;172.07;;
13605;SDS011;6874;52.084;5.090;2023-06-14T01:35:19;170.37;;;164.87;;
13605;SDS011;6874;52.084;5.090;2023-06-14T01:37:49;165.57;;;160.20;;
13605;SDS011;6874;52.084;5.090;2023-06-14T01:40:18;163.67;;;158.37;;
13605;SDS011;6874;52.084;5.090;2023-06-14T01:42:46;159.13;;;153.97;;
13605;SDS011;6874;52.084;5.090;2023-06-14T01:45:16;157.97;;;152.87;;
13605;SDS011;6874;52.084;5.090;2023-06-14T01:47:43;157.30;;;152.20;;
13605;SDS011;6874;52.084;5.090;2023-06-14T01:50:10;154.97;;;149.97;;
13605;SDS011;6874;52.084;5.090;2023-06-14T01:52:36;150.57;;;145.67;;
13605;SDS011;6874;52.084;5.090;2023-06-14T01:55:04;148.93;;;144.13;;
13605;SDS011;6874;52.084;5.090;2023-06-14T01:57:30;140.77;;;136.17;;
13605;SDS011;6874;52.084;5.090;2023-06-14T01:59:55;149.03;;;144.20;;
13605;SDS011;6874;52.084;5.090;2023-06-14T02:02:21;152.73;;;147.73;;
13605;SDS011;6874;52.084;5.090;2023-06-14T02:04:47;157.23;;;152.10;;
13605;SDS011;6874;52.084;5.090;2023-06-14T02:07:12;156.07;;;150.97;;
13605;SDS011;6874;52.084;5.090;2023-06-14T02:09:39;151.73;;;146.73;;
13605;SDS011;6874;52.084;5.090;2023-06-14T02:12:05;162.97;;;157.67;;
13605;SDS011;6874;52.084;5.090;2023-06-14T02:14:31;156.77;;;151.63;;
13605;SDS011;6874;52.084;5.090;2023-06-14T02:16:57;160.00;;;154.77;;
13605;SDS011;6874;52.084;5.090;2023-06-14T02:19:23;156.30;;;151.10;;
13605;SDS011;6874;52.084;5.090;2023-06-14T02:21:49;151.50;;;146.40;;
13605;SDS011;6874;52.084;5.090;2023-06-14T02:24:15;150.20;;;145.20;;
13605;SDS011;6874;52.084;5.090;2023-06-14T02:26:41;148.80;;;143.83;;
13605;SDS011;6874;52.084;5.090;2023-06-14T02:29:07;152.30;;;147.23;;
13605;SDS011;6874;52.084;5.090;2023-06-14T02:31:37;153.77;;;148.60;;
13605;SDS011;6874;52.084;5.090;2023-06-14T02:34:03;145.03;;;140.17;;
13605;SDS011;6874;52.084;5.090;2023-06-14T02:36:29;138.57;;;133.83;;
13605;SDS011;6874;52.084;5.090;2023-06-14T02:38:55;134.10;;;129.57;;
13605;SDS011;6874;52.084;5.090;2023-06-14T02:41:22;128.40;;;124.03;;
13605;SDS011;6874;52.084;5.090;2023-06-14T02:43:48;125.43;;;121.17;;
13605;SDS011;6874;52.084;5.090;2023-06-14T02:46:14;116.27;;;112.30;;
13605;SDS011;6874;52.084;5.090;2023-06-14T02:48:40;110.43;;;106.67;;
13605;SDS011;6874;52.084;5.090;2023-06-14T02:51:06;108.67;;;104.97;;
13605;SDS011;6874;52.084;5.090;2023-06-14T02:53:33;102.73;;;99.23;;
13605;SDS011;6874;52.084;5.090;2023-06-14T02:55:59;94.13;;;90.93;;
13605;SDS011;6874;52.084;5.090;2023-06-14T02:58:26;90.67;;;87.57;;
13605;SDS011;6874;52.084;5.090;2023-06-14T03:00:51;87.03;;;84.07;;
13605;SDS011;6874;52.084;5.090;2023-06-14T03:03:20;78.40;;;75.73;;
13605;SDS011;6874;52.084;5.090;2023-06-14T03:05:47;65.63;;;63.40;;
13605;SDS011;6874;52.084;5.090;2023-06-14T03:08:14;60.10;;;58.03;;
13605;SDS011;6874;52.084;5.090;2023-06-14T03:10:48;58.00;;;56.03;;
13605;SDS011;6874;52.084;5.090;2023-06-14T03:13:14;57.27;;;55.33;;
13605;SDS011;6874;52.084;5.090;2023-06-14T03:15:46;54.80;;;52.93;;
13605;SDS011;6874;52.084;5.090;2023-06-14T03:18:12;53.73;;;51.93;;
13605;SDS011;6874;52.084;5.090;2023-06-14T03:20:39;53.03;;;51.23;;
13605;SDS011;6874;52.084;5.090;2023-06-14T03:23:06;51.27;;;49.53;;
13605;SDS011;6874;52.084;5.090;2023-06-14T03:25:32;53.60;;;51.80;;
13605;SDS011;6874;52.084;5.090;2023-06-14T03:28:00;47.27;;;45.67;;
13605;SDS011;6874;52.084;5.090;2023-06-14T03:30:29;48.80;;;47.20;;
13605;SDS011;6874;52.084;5.090;2023-06-14T03:32:55;46.23;;;44.73;;
13605;SDS011;6874;52.084;5.090;2023-06-14T03:35:21;47.63;;;46.07;;
13605;SDS011;6874;52.084;5.090;2023-06-14T03:37:48;46.40;;;44.90;;
13605;SDS011;6874;52.084;5.090;2023-06-14T03:40:14;44.87;;;43.40;;
13605;SDS011;6874;52.084;5.090;2023-06-14T03:42:43;45.17;;;43.67;;
13605;SDS011;6874;52.084;5.090;2023-06-14T03:45:09;45.27;;;43.77;;
13605;SDS011;6874;52.084;5.090;2023-06-14T03:47:35;44.03;;;42.63;;
13605;SDS011;6874;52.084;5.090;2023-06-14T03:50:01;42.43;;;41.03;;
13605;SDS011;6874;52.084;5.090;2023-06-14T03:52:28;42.27;;;40.87;;
13605;SDS011;6874;52.084;5.090;2023-06-14T03:54:54;43.80;;;42.40;;
13605;SDS011;6874;52.084;5.090;2023-06-14T03:57:20;43.43;;;42.03;;
13605;SDS011;6874;52.084;5.090;2023-06-14T03:59:46;37.07;;;35.87;;
13605;SDS011;6874;52.084;5.090;2023-06-14T04:02:12;38.80;;;37.57;;
13605;SDS011;6874;52.084;5.090;2023-06-14T04:04:41;33.10;;;32.03;;
13605;SDS011;6874;52.084;5.090;2023-06-14T04:07:09;29.17;;;28.27;;
13605;SDS011;6874;52.084;5.090;2023-06-14T04:09:36;27.87;;;26.97;;
13605;SDS011;6874;52.084;5.090;2023-06-14T04:12:03;25.13;;;24.33;;
13605;SDS011;6874;52.084;5.090;2023-06-14T04:14:29;22.17;;;21.47;;
13605;SDS011;6874;52.084;5.090;2023-06-14T04:16:55;22.17;;;21.47;;
13605;SDS011;6874;52.084;5.090;2023-06-14T04:19:21;19.80;;;19.20;;
13605;SDS011;6874;52.084;5.090;2023-06-14T04:21:46;18.83;;;18.23;;
13605;SDS011;6874;52.084;5.090;2023-06-14T04:24:12;17.77;;;17.23;;
13605;SDS011;6874;52.084;5.090;2023-06-14T04:26:41;16.93;;;16.43;;
13605;SDS011;6874;52.084;5.090;2023-06-14T04:29:09;16.50;;;16.00;;
13605;SDS011;6874;52.084;5.090;2023-06-14T04:31:39;15.77;;;15.27;;
13605;SDS011;6874;52.084;5.090;2023-06-14T04:34:09;17.13;;;16.63;;
13605;SDS011;6874;52.084;5.090;2023-06-14T04:36:40;16.00;;;15.50;;
13605;SDS011;6874;52.084;5.090;2023-06-14T04:39:08;17.83;;;17.27;;
13605;SDS011;6874;52.084;5.090;2023-06-14T04:41:33;20.13;;;19.50;;
13605;SDS011;6874;52.084;5.090;2023-06-14T04:44:00;24.37;;;23.57;;
13605;SDS011;6874;52.084;5.090;2023-06-14T04:46:28;26.03;;;25.20;;
13605;SDS011;6874;52.084;5.090;2023-06-14T04:48:55;29.53;;;28.57;;
13605;SDS011;6874;52.084;5.090;2023-06-14T04:51:21;33.10;;;32.00;;
13605;SDS011;6874;52.084;5.090;2023-06-14T04:53:54;36.60;;;35.40;;
13605;SDS011;6874;52.084;5.090;2023-06-14T04:56:23;35.03;;;33.90;;
13605;SDS011;6874;52.084;5.090;2023-06-14T04:58:50;44.83;;;43.33;;
13605;SDS011;6874;52.084;5.090;2023-06-14T05:01:16;48.97;;;47.33;;
13605;SDS011;6874;52.084;5.090;2023-06-14T05:03:42;61.13;;;59.07;;
13605;SDS011;6874;52.084;5.090;2023-06-14T05:06:09;56.60;;;54.70;;
13605;SDS011;6874;52.084;5.090;2023-06-14T05:08:36;75.70;;;73.20;;
13605;SDS011;6874;52.084;5.090;2023-06-14T05:11:02;78.07;;;75.47;;
13605;SDS011;6874;52.084;5.090;2023-06-14T05:13:28;83.70;;;80.90;;
13605;SDS011;6874;52.084;5.090;2023-06-14T05:15:53;88.80;;;85.83;;
13605;SDS011;6874;52.084;5.090;2023-06-14T05:18:19;97.00;;;93.73;;
13605;SDS011;6874;52.084;5.090;2023-06-14T05:20:45;95.63;;;92.43;;
13605;SDS011;6874;52.084;5.090;2023-06-14T05:23:11;101.93;;;98.53;;
13605;SDS011;6874;52.084;5.090;2023-06-14T05:25:41;119.80;;;115.80;;
13605;SDS011;6874;52.084;5.090;2023-06-14T05:28:10;133.30;;;128.77;;
13605;SDS011;6874;52.084;5.090;2023-06-14T05:30:37;131.80;;;127.37;;
13605;SDS011;6874;52.084;5.090;2023-06-14T05:33:04;143.87;;;139.10;;
13605;SDS011;6874;52.084;5.090;2023-06-14T05:35:30;154.17;;;149.07;;
13605;SDS011;6874;52.084;5.090;2023-06-14T05:37:55;152.60;;;147.57;;
13605;SDS011;6874;52.084;5.090;2023-06-14T05:40:21;160.00;;;154.73;;
13605;SDS011;6874;52.084;5.090;2023-06-14T05:42:47;164.30;;;158.93;;
13605;SDS011;6874;52.084;5.090;2023-06-14T05:45:12;187.27;;;181.17;;
13605;SDS011;6874;52.084;5.090;2023-06-14T05:47:39;184.27;;;178.33;;
13605;SDS011;6874;52.084;5.090;2023-06-14T05:50:05;167.40;;;162.00;;
13605;SDS011;6874;52.084;5.090;2023-06-14T05:52:31;178.03;;;172.27;;
13605;SDS011;6874;52.084;5.090;2023-06-14T05:54:56;200.70;;;194.23;;
13605;SDS011;6874;52.084;5.090;2023-06-14T05:57:22;196.33;;;190.03;;
13605;SDS011;6874;52.084;5.090;2023-06-14T05:59:47;214.83;;;207.90;;
13605;SDS011;6874;52.084;5.090;2023-06-14T06:02:13;203.03;;;196.50;;
13605;SDS011;6874;52.084;5.090;2023-06-14T06:04:39;206.73;;;200.07;;
13605;SDS011;6874;52.084;5.090;2023-06-14T06:07:04;202.90;;;196.37;;
13605;SDS011;6874;52.084;5.090;2023-06-14T06:09:30;190.50;;;184.40;;
13605;SDS011;6874;52.084;5.090;2023-06-14T06:11:55;186.60;;;180.60;;
13605;SDS011;6874;52.084;5.090;2023-06-14T06:14:21;203.53;;;197.03;;
13605;SDS011;6874;52.084;5.090;2023-06-14T06:16:47;190.07;;;183.90;;
13605;SDS011;6874;52.084;5.090;2023-06-14T06:19:12;194.53;;;188.23;;
13605;SDS011;6874;52.084;5.090;2023-06-14T06:21:38;189.33;;;183.13;;
13605;SDS011;6874;52.084;5.090;2023-06-14T06:24:04;170.57;;;164.97;;
13605;SDS011;6874;52.084;5.090;2023-06-14T06:26:30;160.53;;;155.20;;
13605;SDS011;6874;52.084;5.090;2023-06-14T06:28:57;164.53;;;159.07;;
13605;SDS011;6874;52.084;5.090;2023-06-14T06:31:25;154.60;;;149.47;;
13605;SDS011;6874;52.084;5.090;2023-06-14T06:33:52;150.03;;;145.00;;
13605;SDS011;6874;52.084;5.090;2023-06-14T06:36:19;154.67;;;149.53;;
13605;SDS011;6874;52.084;5.090;2023-06-14T06:38:46;150.13;;;145.07;;
13605;SDS011;6874;52.084;5.090;2023-06-14T06:41:12;141.90;;;137.17;;
13605;SDS011;6874;52.084;5.090;2023-06-14T06:43:37;135.97;;;131.40;;
13605;SDS011;6874;52.084;5.090;2023-06-14T06:46:03;137.93;;;133.27;;
13605;SDS011;6874;52.084;5.090;2023-06-14T06:48:29;132.33;;;127.90;;
13605;SDS011;6874;52.084;5.090;2023-06-14T06:50:54;126.20;;;121.93;;
13605;SDS011;6874;52.084;5.090;2023-06-14T06:53:20;121.63;;;117.50;;
13605;SDS011;6874;52.084;5.090;2023-06-14T06:55:46;114.03;;;110.13;;
13605;SDS011;6874;52.084;5.090;2023-06-14T06:58:12;104.63;;;101.00;;
13605;SDS011;6874;52.084;5.090;2023-06-14T07:00:37;104.70;;;101.10;;
13605;SDS011;6874;52.084;5.090;2023-06-14T07:03:03;105.63;;;102.03;;
13605;SDS011;6874;52.084;5.090;2023-06-14T07:05:29;102.23;;;98.67;;
13605;SDS011;6874;52.084;5.090;2023-06-14T07:07:54;85.27;;;82.27;;
13605;SDS011;6874;52.084;5.090;2023-06-14T07:10:20;84.93;;;81.93;;
13605;SDS011;6874;52.084;5.090;2023-06-14T07:12:46;86.40;;;83.40;;
13605;SDS011;6874;52.084;5.090;2023-06-14T07:15:12;79.87;;;77.07;;
13605;SDS011;6874;52.084;5.090;2023-06-14T07:17:37;76.37;;;73.70;;
13605;SDS011;6874;52.084;5.090;2023-06-14T07:20:04;78.67;;;75.87;;
13605;SDS011;6874;52.084;5.090;2023-06-14T07:22:33;78.20;;;75.47;;
13605;SDS011;6874;52.084;5.090;2023-06-14T07:24:58;79.73;;;76.97;;
13605;SDS011;6874;52.084;5.090;2023-06-14T07:27:24;80.10;;;77.33;;
13605;SDS011;6874;52.084;5.090;2023-06-14T07:29:49;81.03;;;78.23;;
13605;SDS011;6874;52.084;5.090;2023-06-14T07:32:15;85.97;;;83.00;;
13605;SDS011;6874;52.084;5.090;2023-06-14T07:34:40;87.93;;;84.97;;
13605;SDS011;6874;52.084;5.090;2023-06-14T07:37:06;79.70;;;77.07;;
13605;SDS011;6874;52.084;5.090;2023-06-14T07:39:31;73.20;;;70.83;;
13605;SDS011;6874;52.084;5.090;2023-06-14T07:41:57;68.83;;;66.63;;
13605;SDS011;6874;52.084;5.090;2023-06-14T07:44:22;57.47;;;55.60;;
13605;SDS011;6874;52.084;5.090;2023-06-14T07:46:48;48.90;;;47.30;;
13605;SDS011;6874;52.084;5.090;2023-06-14T07:49:16;49.03;;;47.43;;
13605;SDS011;6874;52.084;5.090;2023-06-14T07:51:42;50.23;;;48.53;;
13605;SDS011;6874;52.084;5.090;2023-06-14T07:54:09;42.67;;;41.23;;
13605;SDS011;6874;52.084;5.090;2023-06-14T07:56:35;40.03;;;38.67;;
13605;SDS011;6874;52.084;5.090;2023-06-14T07:59:01;48.97;;;47.23;;
13605;SDS011;6874;52.084;5.090;2023-06-14T08:01:26;71.03;;;68.47;;
13605;SDS011;6874;52.084;5.090;2023-06-14T08:03:53;89.93;;;86.73;;
13605;SDS011;6874;52.084;5.090;2023-06-14T08:06:18;93.73;;;90.50;;
13605;SDS011;6874;52.084;5.090;2023-06-14T08:08:44;108.30;;;104.70;;
13605;SDS011;6874;52.084;5.090;2023-06-14T08:11:10;126.63;;;122.57;;
13605;SDS011;6874;52.084;5.090;2023-06-14T08:13:35;163.80;;;158.60;;
13605;SDS011;6874;52.084;5.090;2023-06-14T08:16:01;173.63;;;168.03;;
13605;SDS011;6874;52.084;5.090;2023-06-14T08:18:26;167.33;;;161.67;;
13605;SDS011;6874;52.084;5.090;2023-06-14T08:20:52;122.50;;;118.17;;
13605;SDS011;6874;52.084;5.090;2023-06-14T08:23:19;89.20;;;86.00;;
13605;SDS011;6874;52.084;5.090;2023-06-14T08:25:46;77.87;;;75.03;;
13605;SDS011;6874;52.084;5.090;2023-06-14T08:28:11;70.83;;;68.33;;
13605;SDS011;6874;52.084;5.090;2023-06-14T08:30:37;71.50;;;68.93;;
13605;SDS011;6874;52.084;5.090;2023-06-14T08:33:02;69.03;;;66.53;;
13605;SDS011;6874;52.084;5.090;2023-06-14T08:35:28;70.93;;;68.43;;
13605;SDS011;6874;52.084;5.090;2023-06-14T08:37:54;69.63;;;67.23;;
13605;SDS011;6874;52.084;5.090;2023-06-14T08:40:20;62.43;;;60.33;;
13605;SDS011;6874;52.084;5.090;2023-06-14T08:42:48;59.93;;;57.93;;
13605;SDS011;6874;52.084;5.090;2023-06-14T08:45:17;50.87;;;49.20;;
13605;SDS011;6874;52.084;5.090;2023-06-14T08:47:44;49.67;;;48.03;;
13605;SDS011;6874;52.084;5.090;2023-06-14T08:50:10;48.77;;;47.13;;
13605;SDS011;6874;52.084;5.090;2023-06-14T08:52:38;56.83;;;54.93;;
13605;SDS011;6874;52.084;5.090;2023-06-14T08:55:06;71.47;;;69.07;;
13605;SDS011;6874;52.084;5.090;2023-06-14T08:57:33;81.20;;;78.40;;
13605;SDS011;6874;52.084;5.090;2023-06-14T09:00:02;101.17;;;97.60;;
13605;SDS011;6874;52.084;5.090;2023-06-14T09:02:35;115.40;;;111.37;;
13605;SDS011;6874;52.084;5.090;2023-06-14T09:05:00;131.33;;;126.83;;
13605;SDS011;6874;52.084;5.090;2023-06-14T09:07:26;129.40;;;125.00;;
13605;SDS011;6874;52.084;5.090;2023-06-14T09:10:05;118.33;;;114.37;;
13605;SDS011;6874;52.084;5.090;2023-06-14T09:12:37;109.33;;;105.73;;
13605;SDS011;6874;52.084;5.090;2023-06-14T09:15:04;100.27;;;96.97;;
13605;SDS011;6874;52.084;5.090;2023-06-14T09:17:40;99.90;;;96.70;;
13605;SDS011;6874;52.084;5.090;2023-06-14T09:20:07;75.57;;;73.17;;
13605;SDS011;6874;52.084;5.090;2023-06-14T09:22:38;60.53;;;58.60;;
13605;SDS011;6874;52.084;5.090;2023-06-14T09:25:05;47.10;;;45.60;;
13605;SDS011;6874;52.084;5.090;2023-06-14T09:27:31;37.87;;;36.67;;
13605;SDS011;6874;52.084;5.090;2023-06-14T09:29:57;44.00;;;42.60;;
13605;SDS011;6874;52.084;5.090;2023-06-14T09:32:23;42.03;;;40.70;;
13605;SDS011;6874;52.084;5.090;2023-06-14T09:34:49;32.70;;;31.67;;
13605;SDS011;6874;52.084;5.090;2023-06-14T09:37:31;27.53;;;26.63;;
13605;SDS011;6874;52.084;5.090;2023-06-14T09:39:57;28.60;;;27.70;;
13605;SDS011;6874;52.084;5.090;2023-06-14T09:42:23;31.57;;;30.57;;
13605;SDS011;6874;52.084;5.090;2023-06-14T09:44:54;35.27;;;34.13;;
13605;SDS011;6874;52.084;5.090;2023-06-14T09:47:20;41.77;;;40.40;;
13605;SDS011;6874;52.084;5.090;2023-06-14T09:49:47;48.27;;;46.70;;
13605;SDS011;6874;52.084;5.090;2023-06-14T09:52:14;54.37;;;52.60;;
13605;SDS011;6874;52.084;5.090;2023-06-14T09:54:41;57.30;;;55.43;;
13605;SDS011;6874;52.084;5.090;2023-06-14T09:57:09;44.97;;;43.50;;
13605;SDS011;6874;52.084;5.090;2023-06-14T09:59:36;24.47;;;23.67;;
13605;SDS011;6874;52.084;5.090;2023-06-14T10:02:07;16.07;;;15.57;;
13605;SDS011;6874;52.084;5.090;2023-06-14T10:04:58;16.73;;;16.23;;
13605;SDS011;6874;52.084;5.090;2023-06-14T10:07:35;28.63;;;27.73;;
13605;SDS011;6874;52.084;5.090;2023-06-14T10:10:07;49.93;;;48.33;;
13605;SDS011;6874;52.084;5.090;2023-06-14T10:12:33;60.03;;;58.10;;
13605;SDS011;6874;52.084;5.090;2023-06-14T10:14:59;67.93;;;65.73;;
13605;SDS011;6874;52.084;5.090;2023-06-14T10:17:29;90.37;;;87.43;;
13605;SDS011;6874;52.084;5.090;2023-06-14T10:20:20;99.83;;;96.57;;
13605;SDS011;6874;52.084;5.090;2023-06-14T10:22:51;115.13;;;111.43;;
13605;SDS011;6874;52.084;5.090;2023-06-14T10:25:30;124.50;;;120.50;;
13605;SDS011;6874;52.084;5.090;2023-06-14T10:33:39;94.57;;;91.57;;
13605;SDS011;6874;52.084;5.090;2023-06-14T10:36:28;95.13;;;92.07;;
13605;SDS011;6874;52.084;5.090;2023-06-14T10:39:00;75.97;;;73.50;;
13605;SDS011;6874;52.084;5.090;2023-06-14T10:41:38;61.63;;;59.67;;
13605;SDS011;6874;52.084;5.090;2023-06-14T10:46:39;39.23;;;37.97;;
13605;SDS011;6874;52.084;5.090;2023-06-14T10:49:35;35.47;;;34.33;;
13605;SDS011;6874;52.084;5.090;2023-06-14T10:52:09;34.97;;;33.87;;
13605;SDS011;6874;52.084;5.090;2023-06-14T10:57:36;33.87;;;32.77;;
13605;SDS011;6874;52.084;5.090;2023-06-14T11:00:03;30.83;;;29.83;;
13605;SDS011;6874;52.084;5.090;2023-06-14T11:05:14;26.77;;;25.97;;
13605;SDS011;6874;52.084;5.090;2023-06-14T11:10:37;20.63;;;20.03;;
13605;SDS011;6874;52.084;5.090;2023-06-14T11:13:07;19.07;;;18.47;;
13605;SDS011;6874;52.084;5.090;2023-06-14T11:15:33;19.97;;;19.37;;
13605;SDS011;6874;52.084;5.090;2023-06-14T11:18:01;22.97;;;22.27;;
13605;SDS011;6874;52.084;5.090;2023-06-14T11:20:30;24.63;;;23.83;;
13605;SDS011;6874;52.084;5.090;2023-06-14T11:22:57;23.40;;;22.67;;
13605;SDS011;6874;52.084;5.090;2023-06-14T11:25:23;22.30;;;21.60;;
13605;SDS011;6874;52.084;5.090;2023-06-14T11:27:49;21.30;;;20.60;;
13605;SDS011;6874;52.084;5.090;2023-06-14T11:30:16;21.70;;;21.00;;
13605;SDS011;6874;52.084;5.090;2023-06-14T11:32:42;20.50;;;19.87;;
13605;SDS011;6874;52.084;5.090;2023-06-14T11:35:12;20.70;;;20.07;;
13605;SDS011;6874;52.084;5.090;2023-06-14T11:37:37;21.27;;;20.57;;
13605;SDS011;6874;52.084;5.090;2023-06-14T11:40:06;20.33;;;19.73;;
13605;SDS011;6874;52.084;5.090;2023-06-14T11:42:34;25.80;;;25.00;;
13605;SDS011;6874;52.084;5.090;2023-06-14T11:45:01;23.60;;;22.90;;
13605;SDS011;6874;52.084;5.090;2023-06-14T11:47:31;31.03;;;30.03;;
13605;SDS011;6874;52.084;5.090;2023-06-14T11:49:58;30.90;;;29.90;;
13605;SDS011;6874;52.084;5.090;2023-06-14T11:52:24;34.23;;;33.13;;
13605;SDS011;6874;52.084;5.090;2023-06-14T11:54:50;31.43;;;30.43;;
13605;SDS011;6874;52.084;5.090;2023-06-14T11:57:17;31.63;;;30.63;;
13605;SDS011;6874;52.084;5.090;2023-06-14T11:59:43;43.63;;;42.23;;
13605;SDS011;6874;52.084;5.090;2023-06-14T12:02:13;36.47;;;35.30;;
13605;SDS011;6874;52.084;5.090;2023-06-14T12:04:43;29.70;;;28.73;;
13605;SDS011;6874;52.084;5.090;2023-06-14T12:07:09;40.07;;;38.77;;
13605;SDS011;6874;52.084;5.090;2023-06-14T12:09:42;51.07;;;49.43;;
13605;SDS011;6874;52.084;5.090;2023-06-14T12:12:34;51.37;;;49.70;;
13605;SDS011;6874;52.084;5.090;2023-06-14T12:15:02;60.43;;;58.50;;
13605;SDS011;6874;52.084;5.090;2023-06-14T12:17:32;59.83;;;57.90;;
13605;SDS011;6874;52.084;5.090;2023-06-14T12:19:58;55.73;;;53.93;;
13605;SDS011;6874;52.084;5.090;2023-06-14T12:22:24;51.23;;;49.57;;
13605;SDS011;6874;52.084;5.090;2023-06-14T12:24:49;47.53;;;46.00;;
13605;SDS011;6874;52.084;5.090;2023-06-14T12:27:16;37.00;;;35.80;;
13605;SDS011;6874;52.084;5.090;2023-06-14T12:29:43;42.83;;;41.47;;
13605;SDS011;6874;52.084;5.090;2023-06-14T12:32:09;57.17;;;55.33;;
13605;SDS011;6874;52.084;5.090;2023-06-14T12:34:36;60.57;;;58.60;;
13605;SDS011;6874;52.084;5.090;2023-06-14T12:37:01;64.03;;;61.97;;
13605;SDS011;6874;52.084;5.090;2023-06-14T12:39:29;68.10;;;65.90;;
13605;SDS011;6874;52.084;5.090;2023-06-14T12:41:56;77.53;;;75.07;;
13605;SDS011;6874;52.084;5.090;2023-06-14T12:44:22;80.80;;;78.23;;
13605;SDS011;6874;52.084;5.090;2023-06-14T12:46:47;88.70;;;85.87;;
13605;SDS011;6874;52.084;5.090;2023-06-14T12:49:16;94.70;;;91.63;;
13605;SDS011;6874;52.084;5.090;2023-06-14T12:51:41;99.10;;;95.93;;
13605;SDS011;6874;52.084;5.090;2023-06-14T12:54:07;111.00;;;107.30;;
13605;SDS011;6874;52.084;5.090;2023-06-14T12:56:33;116.33;;;112.63;;
13605;SDS011;6874;52.084;5.090;2023-06-14T12:58:58;117.87;;;114.07;;
13605;SDS011;6874;52.084;5.090;2023-06-14T13:01:24;116.07;;;112.37;;
13605;SDS011;6874;52.084;5.090;2023-06-14T13:03:49;108.70;;;105.20;;
13605;SDS011;6874;52.084;5.090;2023-06-14T13:06:20;93.50;;;90.50;;
13605;SDS011;6874;52.084;5.090;2023-06-14T13:08:46;88.93;;;86.13;;
13605;SDS011;6874;52.084;5.090;2023-06-14T13:11:12;78.80;;;76.30;;
13605;SDS011;6874;52.084;5.090;2023-06-14T13:13:37;72.00;;;69.70;;
13605;SDS011;6874;52.084;5.090;2023-06-14T13:16:03;82.70;;;80.07;;
13605;SDS011;6874;52.084;5.090;2023-06-14T13:18:28;91.87;;;88.93;;
13605;SDS011;6874;52.084;5.090;2023-06-14T13:20:54;111.00;;;107.47;;
13605;SDS011;6874;52.084;5.090;2023-06-14T13:23:20;112.00;;;108.47;;
13605;SDS011;6874;52.084;5.090;2023-06-14T13:25:45;111.77;;;108.23;;
13605;SDS011;6874;52.084;5.090;2023-06-14T13:28:11;98.83;;;95.70;;
13605;SDS011;6874;52.084;5.090;2023-06-14T13:30:37;98.33;;;95.20;;
13605;SDS011;6874;52.084;5.090;2023-06-14T13:33:02;109.53;;;106.07;;
13605;SDS011;6874;52.084;5.090;2023-06-14T13:35:28;127.77;;;123.70;;
13605;SDS011;6874;52.084;5.090;2023-06-14T13:37:54;141.03;;;136.57;;
13605;SDS011;6874;52.084;5.090;2023-06-14T13:40:20;149.50;;;144.77;;
13605;SDS011;6874;52.084;5.090;2023-06-14T13:42:46;158.83;;;153.80;;
13605;SDS011;6874;52.084;5.090;2023-06-14T13:45:12;169.20;;;163.83;;
13605;SDS011;6874;52.084;5.090;2023-06-14T13:47:38;181.40;;;175.63;;
13605;SDS011;6874;52.084;5.090;2023-06-14T13:50:04;185.47;;;179.57;;
13605;SDS011;6874;52.084;5.090;2023-06-14T13:52:30;180.00;;;174.30;;
13605;SDS011;6874;52.084;5.090;2023-06-14T13:54:55;182.77;;;176.93;;
13605;SDS011;6874;52.084;5.090;2023-06-14T13:57:21;192.30;;;186.20;;
13605;SDS011;6874;52.084;5.090;2023-06-14T13:59:47;187.57;;;181.57;;
13605;SDS011;6874;52.084;5.090;2023-06-14T14:02:13;182.40;;;176.57;;
13605;SDS011;6874;52.084;5.090;2023-06-14T14:04:39;170.90;;;165.40;;
13605;SDS011;6874;52.084;5.090;2023-06-14T14:07:05;204.00;;;197.40;;
13605;SDS011;6874;52.084;5.090;2023-06-14T14:09:32;219.83;;;212.73;;
13605;SDS011;6874;52.084;5.090;2023-06-14T14:11:58;192.10;;;185.87;;
13605;SDS011;6874;52.084;5.090;2023-06-14T14:14:24;180.40;;;174.60;;
13605;SDS011;6874;52.084;5.090;2023-06-14T14:16:50;150.17;;;145.33;;
13605;SDS011;6874;52.084;5.090;2023-06-14T14:19:19;144.67;;;140.03;;
13605;SDS011;6874;52.084;5.090;2023-06-14T14:21:46;157.20;;;152.17;;
13605;SDS011;6874;52.084;5.090;2023-06-14T14:24:11;163.73;;;158.43;;
13605;SDS011;6874;52.084;5.090;2023-06-14T14:26:38;173.93;;;168.33;;
13605;SDS011;6874;52.084;5.090;2023-06-14T14:29:03;164.53;;;159.20;;
13605;SDS011;6874;52.084;5.090;2023-06-14T14:31:29;129.83;;;125.67;;
13605;SDS011;6874;52.084;5.090;2023-06-14T14:33:55;114.47;;;110.80;;
13605;SDS011;6874;52.084;5.090;2023-06-14T14:36:20;125.27;;;121.23;;
13605;SDS011;6874;52.084;5.090;2023-06-14T14:38:46;114.17;;;110.50;;
13605;SDS011;6874;52.084;5.090;2023-06-14T14:41:17;106.07;;;102.67;;
13605;SDS011;6874;52.084;5.090;2023-06-14T14:43:43;122.00;;;118.07;;
13605;SDS011;6874;52.084;5.090;2023-06-14T14:46:08;129.67;;;125.50;;